createdAt,value
2023-12-11T00:02:12.094Z,99235.75
2023-12-11T00:04:38.711Z,99237.41
2023-12-11T00:07:05.248Z,99281.91
2023-12-11T00:09:31.900Z,99266.47
2023-12-11T00:11:58.401Z,99289.72
2023-12-11T00:14:25.031Z,99271.09
2023-12-11T00:16:52.335Z,99263.97
2023-12-11T00:19:19.353Z,99289.72
2023-12-11T00:21:46.118Z,99277.41
2023-12-11T00:24:12.692Z,99266.13
2023-12-11T00:26:39.309Z,99261.31
2023-12-11T00:29:05.846Z,99235.25
2023-12-11T00:31:32.380Z,99238.06
2023-12-11T00:34:02.042Z,99256.81
2023-12-11T00:36:28.669Z,99265.47
2023-12-11T00:38:55.188Z,99263.63
2023-12-11T00:41:22.480Z,99262.97
2023-12-11T00:43:50.566Z,99258.81
2023-12-11T00:46:22.383Z,99254.84
2023-12-11T00:48:49.879Z,99213.31
2023-12-11T00:51:21.280Z,99255.53
2023-12-11T00:53:48.634Z,99243.22
2023-12-11T00:56:15.934Z,99245.88
2023-12-11T00:58:42.686Z,99243.06
2023-12-11T01:01:09.310Z,99237.91
2023-12-11T01:03:38.549Z,99241.38
2023-12-11T01:06:05.889Z,99244.88
2023-12-11T01:08:34.032Z,99247.53
2023-12-11T01:11:00.596Z,99238.22
2023-12-11T01:13:27.170Z,99246.53
2023-12-11T01:15:53.755Z,99243.06
2023-12-11T01:18:20.444Z,99231.41
2023-12-11T01:20:46.991Z,99240.41
2023-12-11T01:23:13.700Z,99236.41
2023-12-11T01:25:40.253Z,99242.22
2023-12-11T01:28:07.474Z,99246.53
2023-12-11T01:30:34.227Z,99236.72
2023-12-11T01:33:00.860Z,99239.41
2023-12-11T01:35:27.544Z,99254.16
2023-12-11T01:37:54.013Z,99251.38
2023-12-11T01:40:20.527Z,99252.50
2023-12-11T01:42:47.154Z,99240.19
2023-12-11T01:45:13.873Z,99251.66
2023-12-11T01:47:40.986Z,99250.66
2023-12-11T01:50:09.426Z,99247.00
2023-12-11T01:52:37.341Z,99250.84
2023-12-11T01:55:07.932Z,99265.47
2023-12-11T01:57:36.006Z,99212.81
2023-12-11T02:00:09.600Z,99236.06
2023-12-11T02:02:36.496Z,99268.63
2023-12-11T02:05:03.499Z,99252.50
2023-12-11T02:07:31.013Z,99253.31
2023-12-11T02:09:57.867Z,99261.13
2023-12-11T02:12:24.386Z,99260.47
2023-12-11T02:14:51.014Z,99261.47
2023-12-11T02:17:17.759Z,99268.28
2023-12-11T02:19:44.841Z,99266.28
2023-12-11T02:22:12.304Z,99221.09
2023-12-11T02:24:50.944Z,99267.91
2023-12-11T02:27:17.579Z,99263.94
2023-12-11T02:29:44.076Z,99256.78
2023-12-11T02:32:10.620Z,99261.91
2023-12-11T02:34:37.347Z,99256.56
2023-12-11T02:37:04.138Z,99260.69
2023-12-11T02:39:30.747Z,99268.34
2023-12-11T02:41:57.241Z,99260.84
2023-12-11T02:44:23.741Z,99260.16
2023-12-11T02:46:50.214Z,99260.28
2023-12-11T02:49:16.988Z,99253.97
2023-12-11T02:51:43.580Z,99251.63
2023-12-11T02:54:10.088Z,99254.22
2023-12-11T02:56:40.008Z,99265.19
2023-12-11T02:59:06.582Z,99264.69
2023-12-11T03:01:33.443Z,99255.50
2023-12-11T03:04:00.059Z,99232.91
2023-12-11T03:06:27.779Z,99255.81
2023-12-11T03:08:54.357Z,99259.94
2023-12-11T03:11:20.850Z,99257.13
2023-12-11T03:13:47.324Z,99252.28
2023-12-11T03:16:14.382Z,99255.41
2023-12-11T03:18:42.465Z,99245.38
2023-12-11T03:21:09.293Z,99247.22
2023-12-11T03:23:35.811Z,99249.19
2023-12-11T03:26:02.324Z,99253.00
2023-12-11T03:28:29.500Z,99248.47
2023-12-11T03:30:56.063Z,99244.81
2023-12-11T03:33:22.711Z,99239.59
2023-12-11T03:35:49.245Z,99231.31
2023-12-11T03:38:15.749Z,99249.41
2023-12-11T03:40:42.351Z,99239.13
2023-12-11T03:43:08.966Z,99246.22
2023-12-11T03:45:35.504Z,99197.44
2023-12-11T03:48:02.140Z,99233.22
2023-12-11T03:50:28.741Z,99241.72
2023-12-11T03:52:55.310Z,99242.06
2023-12-11T03:55:21.851Z,99236.94
2023-12-11T03:57:48.443Z,99254.56
2023-12-11T04:00:15.295Z,99211.75
2023-12-11T04:02:41.972Z,99260.63
2023-12-11T04:05:08.769Z,99264.25
2023-12-11T04:07:35.311Z,99258.25
2023-12-11T04:10:01.988Z,99270.28
2023-12-11T04:12:28.553Z,99276.44
2023-12-11T04:14:55.103Z,99270.53
2023-12-11T04:17:22.907Z,99275.03
2023-12-11T04:19:49.667Z,99268.53
2023-12-11T04:22:16.256Z,99265.69
2023-12-11T04:24:42.884Z,99270.97
2023-12-11T04:27:09.407Z,99268.59
2023-12-11T04:29:35.911Z,99262.44
2023-12-11T04:32:02.674Z,99276.72
2023-12-11T04:34:29.189Z,99268.53
2023-12-11T04:36:55.815Z,99253.56
2023-12-11T04:39:22.531Z,99264.69
2023-12-11T04:41:49.315Z,99261.47
2023-12-11T04:44:15.877Z,99228.97
2023-12-11T04:46:42.388Z,99255.97
2023-12-11T04:49:09.141Z,99263.44
2023-12-11T04:51:35.758Z,99263.44
2023-12-11T04:54:02.295Z,99255.97
2023-12-11T04:56:28.991Z,99196.88
2023-12-11T04:58:55.588Z,99233.69
2023-12-11T05:01:23.327Z,99244.47
2023-12-11T05:03:49.982Z,99255.72
2023-12-11T05:06:16.554Z,99254.50
2023-12-11T05:08:43.063Z,99261.69
2023-12-11T05:11:09.533Z,99267.31
2023-12-11T05:13:36.104Z,99238.66
2023-12-11T05:16:03.047Z,99266.97
2023-12-11T05:18:29.609Z,99269.31
2023-12-11T05:20:56.140Z,99280.47
2023-12-11T05:23:22.750Z,99268.63
2023-12-11T05:25:49.225Z,99261.97
2023-12-11T05:28:15.804Z,99264.94
2023-12-11T05:30:42.363Z,99233.25
2023-12-11T05:33:09.039Z,99217.69
2023-12-11T05:35:35.923Z,99250.13
2023-12-11T05:38:02.558Z,99260.44
2023-12-11T05:40:29.104Z,99264.75
2023-12-11T05:42:55.637Z,99253.91
2023-12-11T05:45:22.469Z,99255.75
2023-12-11T05:47:49.174Z,99256.59
2023-12-11T05:50:16.156Z,99253.91
2023-12-11T05:52:42.887Z,99251.41
2023-12-11T05:55:10.069Z,99255.09
2023-12-11T05:57:37.084Z,99238.78
2023-12-11T06:00:05.444Z,99249.75
2023-12-11T06:02:32.216Z,99254.91
2023-12-11T06:04:58.902Z,99241.75
2023-12-11T06:07:25.744Z,99244.59
2023-12-11T06:09:52.353Z,99250.13
2023-12-11T06:12:18.969Z,99259.59
2023-12-11T06:14:48.470Z,99242.94
2023-12-11T06:17:16.272Z,99252.25
2023-12-11T06:19:46.301Z,99243.13
2023-12-11T06:22:13.128Z,99243.59
2023-12-11T06:24:43.359Z,99247.94
2023-12-11T06:27:10.228Z,99243.78
2023-12-11T06:29:37.612Z,99245.91
2023-12-11T06:32:04.766Z,99239.09
2023-12-11T06:34:31.860Z,99241.94
2023-12-11T06:36:58.534Z,99233.75
2023-12-11T06:39:26.748Z,99223.25
2023-12-11T06:41:54.005Z,99221.44
2023-12-11T06:44:20.625Z,99224.94
2023-12-11T06:46:47.477Z,99227.59
2023-12-11T06:49:14.063Z,99232.09
2023-12-11T06:51:40.685Z,99226.75
2023-12-11T06:54:07.410Z,99222.25
2023-12-11T06:56:33.999Z,99220.59
2023-12-11T06:59:00.622Z,99226.59
2023-12-11T07:01:36.679Z,99222.72
2023-12-11T07:04:04.302Z,99227.22
2023-12-11T07:06:31.203Z,99222.25
2023-12-11T07:08:58.304Z,99221.69
2023-12-11T07:11:25.765Z,99190.22
2023-12-11T07:13:54.272Z,99213.69
2023-12-11T07:16:21.170Z,99220.25
2023-12-11T07:18:48.248Z,99220.50
2023-12-11T07:21:14.869Z,99228.50
2023-12-11T07:23:41.435Z,99221.50
2023-12-11T07:26:11.431Z,99184.41
2023-12-11T07:28:38.359Z,99217.00
2023-12-11T07:31:06.913Z,99200.25
2023-12-11T07:33:34.295Z,99154.88
2023-12-11T07:36:01.028Z,99199.44
2023-12-11T07:38:27.786Z,99209.94
2023-12-11T07:40:58.560Z,99214.44
2023-12-11T07:43:25.345Z,99170.34
2023-12-11T07:45:53.144Z,99208.63
2023-12-11T07:48:20.340Z,99207.72
2023-12-11T07:50:47.405Z,99207.06
2023-12-11T07:53:14.125Z,99199.72
2023-12-11T07:55:41.287Z,99209.81
2023-12-11T07:58:07.992Z,99203.47
2023-12-11T08:00:34.736Z,99216.81
2023-12-11T08:03:02.185Z,99223.44
2023-12-11T08:05:28.920Z,99234.75
2023-12-11T08:07:55.554Z,99205.88
2023-12-11T08:10:22.261Z,99224.56
2023-12-11T08:12:54.513Z,99217.75
2023-12-11T08:15:21.177Z,99212.78
2023-12-11T08:17:48.146Z,99215.72
2023-12-11T08:20:19.004Z,99221.50
2023-12-11T08:22:46.709Z,99212.06
2023-12-11T08:25:14.623Z,99212.50
2023-12-11T08:27:43.004Z,99215.16
2023-12-11T08:30:11.135Z,99220.97
2023-12-11T08:32:38.938Z,99204.06
2023-12-11T08:35:06.651Z,99216.47
2023-12-11T08:37:33.854Z,99214.09
2023-12-11T08:40:01.265Z,99215.56
2023-12-11T08:42:28.167Z,99211.06
2023-12-11T08:44:54.900Z,99183.31
2023-12-11T08:47:21.545Z,99207.81
2023-12-11T08:49:48.231Z,99209.09
2023-12-11T08:52:15.106Z,99199.63
2023-12-11T08:54:41.853Z,99208.56
2023-12-11T08:57:08.633Z,99212.69
2023-12-11T08:59:35.165Z,99200.38
2023-12-11T09:02:02.068Z,99213.31
2023-12-11T09:04:28.676Z,99210.47
2023-12-11T09:06:55.252Z,99176.16
2023-12-11T09:09:21.743Z,99218.31
2023-12-11T09:11:49.903Z,99212.31
2023-12-11T09:14:16.807Z,99195.28
2023-12-11T09:16:43.288Z,99220.50
2023-12-11T09:19:09.948Z,99161.72
2023-12-11T09:21:37.144Z,99164.75
2023-12-11T09:24:05.020Z,99182.50
2023-12-11T09:26:31.588Z,99206.44
2023-12-11T09:28:59.192Z,99217.19
2023-12-11T09:31:25.988Z,99216.56
2023-12-11T09:33:52.988Z,99219.06
2023-12-11T09:36:19.699Z,99220.91
2023-12-11T09:38:46.197Z,99226.84
2023-12-11T09:41:13.120Z,99214.53
2023-12-11T09:43:40.153Z,99209.75
2023-12-11T09:46:12.342Z,99206.44
2023-12-11T09:48:39.209Z,99208.75
2023-12-11T09:51:06.596Z,99215.16
2023-12-11T09:53:33.642Z,99225.59
2023-12-11T09:56:00.712Z,99176.44
2023-12-11T09:58:27.872Z,99217.84
2023-12-11T10:01:02.098Z,99216.81
2023-12-11T10:03:29.788Z,99217.09
2023-12-11T10:06:00.635Z,99212.13
2023-12-11T10:08:27.290Z,99215.91
2023-12-11T10:11:14.664Z,99201.38
2023-12-11T10:13:41.924Z,99187.47
2023-12-11T10:16:31.044Z,99212.41
2023-12-11T10:18:58.488Z,99212.59
2023-12-11T10:21:25.769Z,99211.09
2023-12-11T10:24:21.648Z,99206.28
2023-12-11T10:26:56.932Z,99195.09
2023-12-11T10:29:26.521Z,99192.59
2023-12-11T10:32:00.681Z,99193.78
2023-12-11T10:34:49.657Z,99198.19
2023-12-11T10:37:16.304Z,99202.25
2023-12-11T10:39:53.187Z,99194.31
2023-12-11T10:42:19.704Z,99197.81
2023-12-11T10:44:50.318Z,99201.31
2023-12-11T10:47:21.051Z,99197.22
2023-12-11T10:49:48.279Z,99203.88
2023-12-11T10:52:15.083Z,99204.06
2023-12-11T10:54:45.189Z,99182.34
2023-12-11T10:57:18.221Z,99207.81
2023-12-11T10:59:45.724Z,99209.66
2023-12-11T11:02:15.438Z,99206.53
2023-12-11T11:04:44.548Z,99202.16
2023-12-11T11:07:23.636Z,99209.03
2023-12-11T11:10:05.443Z,99205.47
2023-12-11T11:12:49.637Z,99200.75
2023-12-11T11:15:25.936Z,99207.28
2023-12-11T11:18:06.564Z,99195.28
2023-12-11T11:20:34.881Z,99199.25
2023-12-11T11:23:16.673Z,99197.16
2023-12-11T11:25:46.553Z,99138.81
2023-12-11T11:28:42.847Z,99194.34
2023-12-11T11:31:19.311Z,99191.22
2023-12-11T11:33:53.321Z,99205.09
2023-12-11T11:36:22.628Z,99180.50
2023-12-11T11:38:59.757Z,99205.22
2023-12-11T11:41:28.835Z,99206.88
2023-12-11T11:43:57.590Z,99198.03
2023-12-11T11:46:25.078Z,99208.53
2023-12-11T11:48:51.854Z,99211.03
2023-12-11T11:51:20.697Z,99206.63
2023-12-11T11:53:55.631Z,99211.81
2023-12-11T11:56:22.167Z,99212.22
2023-12-11T11:58:48.699Z,99211.22
2023-12-11T12:01:15.227Z,99214.91
2023-12-11T12:03:45.392Z,99224.81
2023-12-11T12:06:14.648Z,99208.56
2023-12-11T12:08:44.007Z,99207.56
2023-12-11T12:11:12.946Z,99173.41
2023-12-11T12:13:39.765Z,99223.78
2023-12-11T12:16:06.779Z,99180.41
2023-12-11T12:18:33.748Z,99219.47
2023-12-11T12:21:06.732Z,99213.91
2023-12-11T12:23:33.582Z,99220.28
2023-12-11T12:26:02.244Z,99213.44
2023-12-11T12:28:29.137Z,99230.53
2023-12-11T12:30:55.948Z,99227.88
2023-12-11T12:33:23.080Z,99245.16
2023-12-11T12:35:50.393Z,99237.50
2023-12-11T12:38:17.379Z,99226.91
2023-12-11T12:40:44.043Z,99246.09
2023-12-11T12:43:14.921Z,99211.13
2023-12-11T12:45:42.426Z,99255.72
2023-12-11T12:48:10.047Z,99251.13
2023-12-11T12:50:37.244Z,99262.47
2023-12-11T12:53:06.116Z,99233.66
2023-12-11T12:55:33.565Z,99261.53
2023-12-11T12:58:00.323Z,99258.22
2023-12-11T13:00:28.038Z,99272.63
2023-12-11T13:02:55.734Z,99275.69
2023-12-11T13:05:22.369Z,99246.16
2023-12-11T13:07:59.373Z,99271.16
2023-12-11T13:10:27.149Z,99243.38
2023-12-11T13:12:53.961Z,99267.59
2023-12-11T13:15:20.490Z,99279.38
2023-12-11T13:17:53.390Z,99276.69
2023-12-11T13:20:23.187Z,99292.94
2023-12-11T13:22:49.824Z,99277.25
2023-12-11T13:25:16.875Z,99280.69
2023-12-11T13:27:47.807Z,99292.84
2023-12-11T13:30:18.090Z,99286.03
2023-12-11T13:32:44.790Z,99285.41
2023-12-11T13:35:12.255Z,99288.44
2023-12-11T13:37:39.094Z,99273.53
2023-12-11T13:40:09.407Z,99295.00
2023-12-11T13:42:37.267Z,99290.34
2023-12-11T13:45:04.947Z,99290.19
2023-12-11T13:47:31.812Z,99298.78
2023-12-11T13:49:58.742Z,99301.25
2023-12-11T13:52:25.428Z,99314.16
2023-12-11T13:54:52.704Z,99270.84
2023-12-11T13:57:20.845Z,99315.34
2023-12-11T13:59:47.354Z,99317.19
2023-12-11T14:02:13.945Z,99279.88
2023-12-11T14:04:40.588Z,99320.69
2023-12-11T14:07:07.140Z,99307.16
2023-12-11T14:09:34.427Z,99333.59
2023-12-11T14:12:02.297Z,99327.22
2023-12-11T14:14:29.109Z,99359.47
2023-12-11T14:16:55.672Z,99353.66
2023-12-11T14:19:22.238Z,99371.53
2023-12-11T14:21:48.808Z,99356.31
2023-12-11T14:24:15.748Z,99382.50
2023-12-11T14:26:47.635Z,99393.72
2023-12-11T14:29:18.844Z,99394.00
2023-12-11T14:31:46.585Z,99403.19
2023-12-11T14:34:14.682Z,99412.97
2023-12-11T14:36:41.835Z,99407.69
2023-12-11T14:39:08.662Z,99412.09
2023-12-11T14:41:35.196Z,99417.78
2023-12-11T14:44:01.764Z,99428.81
2023-12-11T14:46:28.388Z,99426.31
2023-12-11T14:48:55.277Z,99396.69
2023-12-11T14:51:21.855Z,99439.19
2023-12-11T14:53:48.398Z,99448.38
2023-12-11T14:56:14.873Z,99433.97
2023-12-11T14:58:41.584Z,99458.78
2023-12-11T15:01:08.263Z,99460.78
2023-12-11T15:03:35.517Z,99464.81
2023-12-11T15:06:03.499Z,99464.50
2023-12-11T15:08:31.006Z,99472.97
2023-12-11T15:10:57.639Z,99470.38
2023-12-11T15:13:24.398Z,99482.22
2023-12-11T15:15:51.719Z,99492.38
2023-12-11T15:18:18.254Z,99501.22
2023-12-11T15:20:44.813Z,99504.41
2023-12-11T15:23:12.954Z,99507.25
2023-12-11T15:25:39.905Z,99523.75
2023-12-11T15:28:06.452Z,99529.91
2023-12-11T15:30:33.376Z,99534.59
2023-12-11T15:33:00.300Z,99536.44
2023-12-11T15:35:27.060Z,99541.06
2023-12-11T15:37:53.539Z,99548.09
2023-12-11T15:40:20.027Z,99517.50
2023-12-11T15:42:46.898Z,99555.75
2023-12-11T15:45:14.719Z,99564.94
2023-12-11T15:48:00.283Z,99563.09
2023-12-11T15:50:27.771Z,99565.94
2023-12-11T15:52:54.500Z,99574.78
2023-12-11T15:55:21.469Z,99549.84
2023-12-11T15:57:48.333Z,99530.22
2023-12-11T16:00:15.520Z,99581.13
2023-12-11T16:02:42.059Z,99594.63
2023-12-11T16:05:09.676Z,99593.97
2023-12-11T16:07:37.029Z,99602.81
2023-12-11T16:10:04.371Z,99606.47
2023-12-11T16:12:32.448Z,99602.31
2023-12-11T16:14:59.257Z,99610.31
2023-12-11T16:17:26.142Z,99607.84
2023-12-11T16:19:52.777Z,99589.06
2023-12-11T16:22:20.029Z,99618.31
2023-12-11T16:24:47.408Z,99621.81
2023-12-11T16:27:14.105Z,99606.19
2023-12-11T16:29:40.614Z,99627.53
2023-12-11T16:32:07.892Z,99559.63
2023-12-11T16:34:34.605Z,99639.19
2023-12-11T16:37:01.257Z,99595.25
2023-12-11T16:39:27.747Z,99640.19
2023-12-11T16:41:54.431Z,99638.91
2023-12-11T16:44:21.125Z,99654.19
2023-12-11T16:46:48.323Z,99661.03
2023-12-11T16:49:14.920Z,99653.22
2023-12-11T16:51:41.546Z,99674.53
2023-12-11T16:54:08.357Z,99669.41
2023-12-11T16:56:34.948Z,99689.19
2023-12-11T16:59:01.534Z,99693.91
2023-12-11T17:01:28.175Z,99703.25
2023-12-11T17:03:54.905Z,99706.91
2023-12-11T17:06:24.077Z,99703.75
2023-12-11T17:08:50.822Z,99737.72
2023-12-11T17:11:17.297Z,99733.41
2023-12-11T17:13:43.949Z,99737.41
2023-12-11T17:16:10.454Z,99744.91
2023-12-11T17:18:37.296Z,99740.91
2023-12-11T17:21:06.772Z,99764.91
2023-12-11T17:23:33.877Z,99729.53
2023-12-11T17:26:01.144Z,99779.41
2023-12-11T17:28:27.704Z,99778.22
2023-12-11T17:30:54.337Z,99778.91
2023-12-11T17:33:21.283Z,99774.53
2023-12-11T17:35:47.810Z,99792.41
2023-12-11T17:38:14.933Z,99788.53
2023-12-11T17:40:41.353Z,99802.38
2023-12-11T17:43:08.834Z,99806.72
2023-12-11T17:45:36.234Z,99810.22
2023-12-11T17:48:04.775Z,99823.03
2023-12-11T17:50:31.683Z,99820.53
2023-12-11T17:52:58.565Z,99776.16
2023-12-11T17:55:25.122Z,99825.88
2023-12-11T17:57:51.781Z,99824.19
2023-12-11T18:00:18.685Z,99827.66
2023-12-11T18:02:45.087Z,99838.88
2023-12-11T18:05:11.773Z,99842.00
2023-12-11T18:07:38.324Z,99855.16
2023-12-11T18:10:05.384Z,99859.97
2023-12-11T18:12:33.025Z,99862.81
2023-12-11T18:15:00.596Z,99856.25
2023-12-11T18:17:27.149Z,99865.63
2023-12-11T18:19:53.804Z,99828.34
2023-12-11T18:22:20.482Z,99884.22
2023-12-11T18:24:47.121Z,99892.22
2023-12-11T18:27:13.645Z,99889.22
2023-12-11T18:29:40.064Z,99864.13
2023-12-11T18:32:06.848Z,99898.53
2023-12-11T18:34:42.980Z,99902.50
2023-12-11T18:37:18.474Z,99918.31
2023-12-11T18:39:45.400Z,99916.97
2023-12-11T18:42:12.723Z,99921.44
2023-12-11T18:44:39.804Z,99918.97
2023-12-11T18:47:06.528Z,99913.97
2023-12-11T18:49:33.398Z,99922.72
2023-12-11T18:51:59.949Z,99940.59
2023-12-11T18:54:26.449Z,99959.94
2023-12-11T18:56:52.974Z,99953.06
2023-12-11T18:59:19.497Z,99967.91
2023-12-11T19:01:46.219Z,99974.09
2023-12-11T19:04:12.956Z,99981.88
2023-12-11T19:06:39.911Z,99964.34
2023-12-11T19:09:08.554Z,99977.25
2023-12-11T19:11:35.892Z,99994.75
2023-12-11T19:14:02.549Z,99999.78
2023-12-11T19:16:29.078Z,99999.41
2023-12-11T19:18:55.752Z,99949.78
2023-12-11T19:21:22.308Z,100006.91
2023-12-11T19:23:50.859Z,100023.91
2023-12-11T19:26:17.350Z,100022.06
2023-12-11T19:28:43.816Z,100016.84
2023-12-11T19:31:10.315Z,100030.06
2023-12-11T19:33:36.953Z,100032.72
2023-12-11T19:38:31.055Z,100038.38
2023-12-11T19:40:57.539Z,100014.28
2023-12-11T19:43:24.751Z,100044.00
2023-12-11T19:45:52.952Z,100043.84
2023-12-11T19:48:22.367Z,100034.53
2023-12-11T19:50:48.943Z,100012.41
2023-12-11T19:53:17.684Z,100044.69
2023-12-11T19:55:44.128Z,100050.00
2023-12-11T19:58:10.644Z,100035.09
2023-12-11T20:00:37.878Z,100063.97
2023-12-11T20:03:04.443Z,100077.16
2023-12-11T20:05:31.051Z,99998.22
2023-12-11T20:07:57.500Z,100064.28
2023-12-11T20:10:31.764Z,100085.28
2023-12-11T20:13:34.125Z,100088.94
2023-12-11T20:16:20.296Z,100100.59
2023-12-11T20:18:47.165Z,100089.84
2023-12-11T20:21:14.127Z,100105.38
2023-12-11T20:23:40.589Z,100102.03
2023-12-11T20:26:07.542Z,100103.31
2023-12-11T20:28:34.121Z,100092.59
2023-12-11T20:31:00.799Z,100098.78
2023-12-11T20:33:27.481Z,100082.19
2023-12-11T20:35:54.544Z,100111.50
2023-12-11T20:38:21.013Z,100112.78
2023-12-11T20:40:48.470Z,100110.66
2023-12-11T20:43:15.227Z,100120.31
2023-12-11T20:45:41.882Z,100123.81
2023-12-11T20:48:08.461Z,100134.28
2023-12-11T20:50:36.126Z,100112.78
2023-12-11T20:53:02.673Z,100126.31
2023-12-11T20:55:29.249Z,100126.31
2023-12-11T20:57:55.847Z,100129.94
2023-12-11T21:00:22.852Z,100128.13
2023-12-11T21:02:49.400Z,100137.94
2023-12-11T21:05:16.401Z,100133.31
2023-12-11T21:07:44.359Z,100135.13
2023-12-11T21:10:11.170Z,100123.97
2023-12-11T21:12:37.630Z,100150.28
2023-12-11T21:15:04.701Z,100149.97
2023-12-11T21:17:31.842Z,100152.50
2023-12-11T21:19:58.727Z,100121.50
2023-12-11T21:22:25.325Z,100147.47
2023-12-11T21:24:51.930Z,100132.69
2023-12-11T21:27:18.507Z,100162.53
2023-12-11T21:29:45.185Z,100169.41
2023-12-11T21:32:11.920Z,100169.69
2023-12-11T21:34:43.410Z,100170.06
2023-12-11T21:37:10.402Z,100169.22
2023-12-11T21:39:37.041Z,100167.72
2023-12-11T21:42:04.808Z,100159.50
2023-12-11T21:44:32.181Z,100173.56
2023-12-11T21:46:59.269Z,100167.41
2023-12-11T21:49:25.986Z,100148.59
2023-12-11T21:51:52.677Z,100151.09
2023-12-11T21:54:19.445Z,100171.53
2023-12-11T21:56:45.936Z,100187.03
2023-12-11T21:59:12.373Z,100186.22
2023-12-11T22:01:38.949Z,100193.38
2023-12-11T22:04:05.661Z,100193.19
2023-12-11T22:06:34.081Z,100189.50
2023-12-11T22:09:00.580Z,100203.00
2023-12-11T22:11:27.082Z,100167.88
2023-12-11T22:13:53.571Z,100210.03
2023-12-11T22:16:20.133Z,100210.03
2023-12-11T22:18:49.016Z,100210.78
2023-12-11T22:21:25.195Z,100226.69
2023-12-11T22:23:53.436Z,100224.19
2023-12-11T22:26:20.854Z,100169.16
2023-12-11T22:28:48.103Z,100220.88
2023-12-11T22:31:14.871Z,100216.97
2023-12-11T22:33:41.345Z,100228.69
2023-12-11T22:36:08.121Z,100237.50
2023-12-11T22:38:34.750Z,100188.09
2023-12-11T22:41:02.040Z,100199.97
2023-12-11T22:43:28.840Z,100248.00
2023-12-11T22:45:55.344Z,100242.69
2023-12-11T22:48:21.868Z,100256.00
2023-12-11T22:50:48.418Z,100253.63
2023-12-11T22:53:14.902Z,100255.16
2023-12-11T22:55:41.392Z,100262.03
2023-12-11T22:58:15.635Z,100261.63
2023-12-11T23:00:43.645Z,100265.00
2023-12-11T23:03:10.272Z,100208.03
2023-12-11T23:05:36.807Z,100261.97
2023-12-11T23:08:03.484Z,100260.56
2023-12-11T23:10:29.967Z,100218.69
2023-12-11T23:12:56.551Z,100244.66
2023-12-11T23:15:23.131Z,100282.50
2023-12-11T23:17:49.730Z,100280.69
2023-12-11T23:20:16.390Z,100281.53
2023-12-11T23:22:43.098Z,100276.34
2023-12-11T23:25:09.740Z,100287.84
2023-12-11T23:27:36.271Z,100257.97
2023-12-11T23:30:07.383Z,100280.00
2023-12-11T23:32:35.688Z,100276.13
2023-12-11T23:35:03.753Z,100244.69
2023-12-11T23:37:30.642Z,100300.53
2023-12-11T23:39:57.406Z,100242.00
2023-12-11T23:42:23.896Z,100305.38
2023-12-11T23:44:50.337Z,100294.31
2023-12-11T23:47:17.049Z,100310.34
2023-12-11T23:49:43.801Z,100322.00
2023-12-11T23:52:10.460Z,100330.47
2023-12-11T23:54:36.936Z,100327.97
2023-12-11T23:57:03.642Z,100337.22
2023-12-11T23:59:30.157Z,100341.56
